sensor_id;sensor_type;location;lat;lon;timestamp;P1;durP1;ratioP1;P2;durP2;ratioP2
11671;SDS011;5892;43.412;24.612;2023-04-24T00:01:03;13.57;;;6.63;;
11671;SDS011;5892;43.412;24.612;2023-04-24T00:03:32;11.37;;;5.77;;
11671;SDS011;5892;43.412;24.612;2023-04-24T00:05:59;8.70;;;5.40;;
11671;SDS011;5892;43.412;24.612;2023-04-24T00:08:27;16.60;;;7.73;;
11671;SDS011;5892;43.412;24.612;2023-04-24T00:10:54;17.30;;;7.80;;
11671;SDS011;5892;43.412;24.612;2023-04-24T00:13:25;13.30;;;8.37;;
11671;SDS011;5892;43.412;24.612;2023-04-24T00:15:53;9.70;;;5.13;;
11671;SDS011;5892;43.412;24.612;2023-04-24T00:18:20;8.17;;;4.97;;
11671;SDS011;5892;43.412;24.612;2023-04-24T00:20:47;8.87;;;5.60;;
11671;SDS011;5892;43.412;24.612;2023-04-24T00:23:14;10.03;;;6.10;;
11671;SDS011;5892;43.412;24.612;2023-04-24T00:25:41;8.90;;;6.33;;
11671;SDS011;5892;43.412;24.612;2023-04-24T00:28:08;10.37;;;6.00;;
11671;SDS011;5892;43.412;24.612;2023-04-24T00:30:36;9.93;;;6.67;;
11671;SDS011;5892;43.412;24.612;2023-04-24T00:33:03;7.53;;;5.67;;
11671;SDS011;5892;43.412;24.612;2023-04-24T00:35:30;9.43;;;5.47;;
11671;SDS011;5892;43.412;24.612;2023-04-24T00:37:56;32.93;;;14.40;;
11671;SDS011;5892;43.412;24.612;2023-04-24T00:40:23;34.30;;;15.47;;
11671;SDS011;5892;43.412;24.612;2023-04-24T00:42:50;16.40;;;8.10;;
11671;SDS011;5892;43.412;24.612;2023-04-24T00:45:17;8.67;;;5.90;;
11671;SDS011;5892;43.412;24.612;2023-04-24T00:47:46;8.63;;;5.40;;
11671;SDS011;5892;43.412;24.612;2023-04-24T00:50:14;7.90;;;5.27;;
11671;SDS011;5892;43.412;24.612;2023-04-24T00:52:42;6.53;;;5.00;;
11671;SDS011;5892;43.412;24.612;2023-04-24T00:55:09;10.53;;;4.90;;
11671;SDS011;5892;43.412;24.612;2023-04-24T00:57:36;5.17;;;4.67;;
11671;SDS011;5892;43.412;24.612;2023-04-24T01:00:03;4.73;;;4.33;;
11671;SDS011;5892;43.412;24.612;2023-04-24T01:02:36;8.03;;;4.87;;
11671;SDS011;5892;43.412;24.612;2023-04-24T01:05:07;5.00;;;4.50;;
11671;SDS011;5892;43.412;24.612;2023-04-24T01:07:34;7.33;;;4.60;;
11671;SDS011;5892;43.412;24.612;2023-04-24T01:10:02;8.37;;;4.97;;
11671;SDS011;5892;43.412;24.612;2023-04-24T01:12:29;6.77;;;4.70;;
11671;SDS011;5892;43.412;24.612;2023-04-24T01:14:56;5.67;;;4.50;;
11671;SDS011;5892;43.412;24.612;2023-04-24T01:17:26;6.77;;;4.67;;
11671;SDS011;5892;43.412;24.612;2023-04-24T01:19:53;5.20;;;4.40;;
11671;SDS011;5892;43.412;24.612;2023-04-24T01:22:23;5.77;;;4.27;;
11671;SDS011;5892;43.412;24.612;2023-04-24T01:24:50;5.17;;;4.60;;
11671;SDS011;5892;43.412;24.612;2023-04-24T01:27:17;8.20;;;4.67;;
11671;SDS011;5892;43.412;24.612;2023-04-24T01:29:44;11.57;;;5.93;;
11671;SDS011;5892;43.412;24.612;2023-04-24T01:32:12;5.30;;;4.80;;
11671;SDS011;5892;43.412;24.612;2023-04-24T01:34:40;5.57;;;5.07;;
11671;SDS011;5892;43.412;24.612;2023-04-24T01:37:07;11.77;;;10.23;;
11671;SDS011;5892;43.412;24.612;2023-04-24T01:39:35;7.77;;;6.10;;
11671;SDS011;5892;43.412;24.612;2023-04-24T01:42:02;7.70;;;5.53;;
11671;SDS011;5892;43.412;24.612;2023-04-24T01:44:30;6.53;;;4.80;;
11671;SDS011;5892;43.412;24.612;2023-04-24T01:46:58;7.87;;;5.03;;
11671;SDS011;5892;43.412;24.612;2023-04-24T01:49:26;5.87;;;4.67;;
11671;SDS011;5892;43.412;24.612;2023-04-24T01:51:53;9.17;;;5.20;;
11671;SDS011;5892;43.412;24.612;2023-04-24T01:54:20;5.70;;;4.80;;
11671;SDS011;5892;43.412;24.612;2023-04-24T01:56:49;7.37;;;4.80;;
11671;SDS011;5892;43.412;24.612;2023-04-24T01:59:16;6.17;;;4.43;;
11671;SDS011;5892;43.412;24.612;2023-04-24T02:01:43;8.13;;;5.50;;
11671;SDS011;5892;43.412;24.612;2023-04-24T02:04:10;5.60;;;4.70;;
11671;SDS011;5892;43.412;24.612;2023-04-24T02:06:37;5.40;;;4.77;;
11671;SDS011;5892;43.412;24.612;2023-04-24T02:09:04;11.23;;;5.43;;
11671;SDS011;5892;43.412;24.612;2023-04-24T02:11:31;6.13;;;4.80;;
11671;SDS011;5892;43.412;24.612;2023-04-24T02:13:59;8.73;;;5.00;;
11671;SDS011;5892;43.412;24.612;2023-04-24T02:16:27;6.90;;;5.10;;
11671;SDS011;5892;43.412;24.612;2023-04-24T02:18:58;7.77;;;4.93;;
11671;SDS011;5892;43.412;24.612;2023-04-24T02:21:25;6.73;;;5.47;;
11671;SDS011;5892;43.412;24.612;2023-04-24T02:23:52;6.13;;;5.50;;
11671;SDS011;5892;43.412;24.612;2023-04-24T02:26:19;8.40;;;5.63;;
11671;SDS011;5892;43.412;24.612;2023-04-24T02:28:46;7.20;;;5.20;;
11671;SDS011;5892;43.412;24.612;2023-04-24T02:31:14;5.27;;;4.67;;
11671;SDS011;5892;43.412;24.612;2023-04-24T02:33:41;5.97;;;5.10;;
11671;SDS011;5892;43.412;24.612;2023-04-24T02:36:08;8.20;;;5.40;;
11671;SDS011;5892;43.412;24.612;2023-04-24T02:38:35;16.90;;;8.33;;
11671;SDS011;5892;43.412;24.612;2023-04-24T02:41:02;16.50;;;14.73;;
11671;SDS011;5892;43.412;24.612;2023-04-24T02:43:31;5.97;;;5.20;;
11671;SDS011;5892;43.412;24.612;2023-04-24T02:45:58;4.33;;;3.67;;
11671;SDS011;5892;43.412;24.612;2023-04-24T02:48:26;3.60;;;3.30;;
11671;SDS011;5892;43.412;24.612;2023-04-24T02:50:53;6.03;;;4.07;;
11671;SDS011;5892;43.412;24.612;2023-04-24T02:53:20;4.03;;;3.40;;
11671;SDS011;5892;43.412;24.612;2023-04-24T02:55:48;3.73;;;3.30;;
11671;SDS011;5892;43.412;24.612;2023-04-24T02:58:15;4.63;;;3.27;;
11671;SDS011;5892;43.412;24.612;2023-04-24T03:00:42;4.27;;;2.80;;
11671;SDS011;5892;43.412;24.612;2023-04-24T03:03:09;3.73;;;2.90;;
11671;SDS011;5892;43.412;24.612;2023-04-24T03:05:38;2.93;;;2.73;;
11671;SDS011;5892;43.412;24.612;2023-04-24T03:08:05;4.80;;;2.83;;
11671;SDS011;5892;43.412;24.612;2023-04-24T03:10:32;3.60;;;3.13;;
11671;SDS011;5892;43.412;24.612;2023-04-24T03:12:59;3.70;;;3.00;;
11671;SDS011;5892;43.412;24.612;2023-04-24T03:15:26;3.23;;;2.80;;
11671;SDS011;5892;43.412;24.612;2023-04-24T03:17:53;3.50;;;2.50;;
11671;SDS011;5892;43.412;24.612;2023-04-24T03:20:20;4.57;;;2.80;;
11671;SDS011;5892;43.412;24.612;2023-04-24T03:22:48;3.10;;;2.80;;
11671;SDS011;5892;43.412;24.612;2023-04-24T03:25:15;3.07;;;2.73;;
11671;SDS011;5892;43.412;24.612;2023-04-24T03:27:42;3.00;;;2.70;;
11671;SDS011;5892;43.412;24.612;2023-04-24T03:30:10;3.40;;;2.77;;
11671;SDS011;5892;43.412;24.612;2023-04-24T03:32:37;3.00;;;2.70;;
11671;SDS011;5892;43.412;24.612;2023-04-24T03:35:04;4.10;;;3.10;;
11671;SDS011;5892;43.412;24.612;2023-04-24T03:37:32;3.70;;;2.80;;
11671;SDS011;5892;43.412;24.612;2023-04-24T03:40:00;3.63;;;3.30;;
11671;SDS011;5892;43.412;24.612;2023-04-24T03:42:27;6.90;;;3.40;;
11671;SDS011;5892;43.412;24.612;2023-04-24T03:44:54;3.53;;;3.23;;
11671;SDS011;5892;43.412;24.612;2023-04-24T03:47:21;3.53;;;3.20;;
11671;SDS011;5892;43.412;24.612;2023-04-24T03:49:48;3.53;;;3.20;;
11671;SDS011;5892;43.412;24.612;2023-04-24T03:52:15;5.43;;;3.10;;
11671;SDS011;5892;43.412;24.612;2023-04-24T03:54:42;3.03;;;2.73;;
11671;SDS011;5892;43.412;24.612;2023-04-24T03:57:10;3.40;;;2.63;;
11671;SDS011;5892;43.412;24.612;2023-04-24T03:59:37;3.77;;;3.10;;
11671;SDS011;5892;43.412;24.612;2023-04-24T04:02:04;4.50;;;3.20;;
11671;SDS011;5892;43.412;24.612;2023-04-24T04:04:31;4.37;;;3.30;;
11671;SDS011;5892;43.412;24.612;2023-04-24T04:06:58;4.97;;;3.33;;
11671;SDS011;5892;43.412;24.612;2023-04-24T04:09:28;4.70;;;3.60;;
11671;SDS011;5892;43.412;24.612;2023-04-24T04:11:55;5.43;;;3.80;;
11671;SDS011;5892;43.412;24.612;2023-04-24T04:14:23;5.27;;;4.37;;
11671;SDS011;5892;43.412;24.612;2023-04-24T04:16:50;3.87;;;3.20;;
11671;SDS011;5892;43.412;24.612;2023-04-24T04:19:17;3.67;;;3.10;;
11671;SDS011;5892;43.412;24.612;2023-04-24T04:21:44;4.00;;;3.30;;
11671;SDS011;5892;43.412;24.612;2023-04-24T04:24:15;5.97;;;2.90;;
11671;SDS011;5892;43.412;24.612;2023-04-24T04:26:42;3.27;;;2.77;;
11671;SDS011;5892;43.412;24.612;2023-04-24T04:29:11;4.43;;;2.80;;
11671;SDS011;5892;43.412;24.612;2023-04-24T04:31:39;3.63;;;2.90;;
11671;SDS011;5892;43.412;24.612;2023-04-24T04:34:06;3.00;;;2.70;;
11671;SDS011;5892;43.412;24.612;2023-04-24T04:36:34;4.50;;;3.43;;
11671;SDS011;5892;43.412;24.612;2023-04-24T04:39:05;3.03;;;2.70;;
11671;SDS011;5892;43.412;24.612;2023-04-24T04:41:32;3.57;;;3.27;;
11671;SDS011;5892;43.412;24.612;2023-04-24T04:44:00;3.37;;;3.07;;
11671;SDS011;5892;43.412;24.612;2023-04-24T04:46:29;3.70;;;3.40;;
11671;SDS011;5892;43.412;24.612;2023-04-24T04:49:00;5.10;;;3.90;;
11671;SDS011;5892;43.412;24.612;2023-04-24T04:51:27;5.17;;;3.53;;
11671;SDS011;5892;43.412;24.612;2023-04-24T04:53:55;4.67;;;3.60;;
11671;SDS011;5892;43.412;24.612;2023-04-24T04:56:22;4.87;;;3.27;;
11671;SDS011;5892;43.412;24.612;2023-04-24T04:58:48;5.10;;;4.00;;
11671;SDS011;5892;43.412;24.612;2023-04-24T05:01:15;6.50;;;5.13;;
11671;SDS011;5892;43.412;24.612;2023-04-24T05:03:42;5.73;;;4.83;;
11671;SDS011;5892;43.412;24.612;2023-04-24T05:06:11;6.27;;;4.87;;
11671;SDS011;5892;43.412;24.612;2023-04-24T05:08:38;4.47;;;3.73;;
11671;SDS011;5892;43.412;24.612;2023-04-24T05:11:04;5.77;;;4.17;;
11671;SDS011;5892;43.412;24.612;2023-04-24T05:13:32;5.77;;;3.57;;
11671;SDS011;5892;43.412;24.612;2023-04-24T05:15:59;3.40;;;3.07;;
11671;SDS011;5892;43.412;24.612;2023-04-24T05:18:26;3.80;;;3.40;;
11671;SDS011;5892;43.412;24.612;2023-04-24T05:20:52;3.50;;;3.10;;
11671;SDS011;5892;43.412;24.612;2023-04-24T05:23:21;3.20;;;2.90;;
11671;SDS011;5892;43.412;24.612;2023-04-24T05:25:48;3.33;;;3.03;;
11671;SDS011;5892;43.412;24.612;2023-04-24T05:28:15;3.43;;;3.10;;
11671;SDS011;5892;43.412;24.612;2023-04-24T05:30:42;3.97;;;3.10;;
11671;SDS011;5892;43.412;24.612;2023-04-24T05:33:09;3.83;;;3.20;;
11671;SDS011;5892;43.412;24.612;2023-04-24T05:35:39;3.10;;;2.80;;
11671;SDS011;5892;43.412;24.612;2023-04-24T05:38:10;4.53;;;2.90;;
11671;SDS011;5892;43.412;24.612;2023-04-24T05:40:39;3.10;;;2.80;;
11671;SDS011;5892;43.412;24.612;2023-04-24T05:43:06;3.57;;;3.00;;
11671;SDS011;5892;43.412;24.612;2023-04-24T05:45:32;3.10;;;2.80;;
11671;SDS011;5892;43.412;24.612;2023-04-24T05:48:01;3.97;;;2.87;;
11671;SDS011;5892;43.412;24.612;2023-04-24T05:50:28;3.00;;;2.70;;
11671;SDS011;5892;43.412;24.612;2023-04-24T05:52:54;3.90;;;3.10;;
11671;SDS011;5892;43.412;24.612;2023-04-24T05:55:26;3.20;;;2.87;;
11671;SDS011;5892;43.412;24.612;2023-04-24T05:57:56;3.40;;;3.00;;
11671;SDS011;5892;43.412;24.612;2023-04-24T06:00:23;3.50;;;3.03;;
11671;SDS011;5892;43.412;24.612;2023-04-24T06:02:50;3.53;;;3.20;;
11671;SDS011;5892;43.412;24.612;2023-04-24T06:05:17;4.10;;;2.70;;
11671;SDS011;5892;43.412;24.612;2023-04-24T06:07:44;3.80;;;2.90;;
11671;SDS011;5892;43.412;24.612;2023-04-24T06:10:11;3.50;;;2.97;;
11671;SDS011;5892;43.412;24.612;2023-04-24T06:12:39;3.27;;;2.97;;
11671;SDS011;5892;43.412;24.612;2023-04-24T06:15:07;4.23;;;3.10;;
11671;SDS011;5892;43.412;24.612;2023-04-24T06:17:35;5.40;;;3.43;;
11671;SDS011;5892;43.412;24.612;2023-04-24T06:20:02;3.53;;;2.90;;
11671;SDS011;5892;43.412;24.612;2023-04-24T06:22:30;5.13;;;3.20;;
11671;SDS011;5892;43.412;24.612;2023-04-24T06:24:57;4.37;;;3.27;;
11671;SDS011;5892;43.412;24.612;2023-04-24T06:27:25;3.20;;;2.90;;
11671;SDS011;5892;43.412;24.612;2023-04-24T06:29:52;5.50;;;3.50;;
11671;SDS011;5892;43.412;24.612;2023-04-24T06:32:22;6.17;;;3.23;;
11671;SDS011;5892;43.412;24.612;2023-04-24T06:34:50;3.63;;;3.00;;
11671;SDS011;5892;43.412;24.612;2023-04-24T06:37:18;4.80;;;2.83;;
11671;SDS011;5892;43.412;24.612;2023-04-24T06:39:45;3.40;;;3.10;;
11671;SDS011;5892;43.412;24.612;2023-04-24T06:42:12;3.47;;;3.17;;
11671;SDS011;5892;43.412;24.612;2023-04-24T06:44:39;4.47;;;3.30;;
11671;SDS011;5892;43.412;24.612;2023-04-24T06:47:07;3.10;;;2.80;;
11671;SDS011;5892;43.412;24.612;2023-04-24T06:49:39;3.00;;;2.60;;
11671;SDS011;5892;43.412;24.612;2023-04-24T06:52:07;3.37;;;2.80;;
11671;SDS011;5892;43.412;24.612;2023-04-24T06:54:34;3.37;;;3.00;;
11671;SDS011;5892;43.412;24.612;2023-04-24T06:57:01;4.70;;;3.80;;
11671;SDS011;5892;43.412;24.612;2023-04-24T06:59:28;3.00;;;2.70;;
11671;SDS011;5892;43.412;24.612;2023-04-24T07:01:56;3.37;;;2.83;;
11671;SDS011;5892;43.412;24.612;2023-04-24T07:04:23;2.77;;;2.33;;
11671;SDS011;5892;43.412;24.612;2023-04-24T07:06:52;2.53;;;2.33;;
11671;SDS011;5892;43.412;24.612;2023-04-24T07:09:21;2.57;;;2.37;;
11671;SDS011;5892;43.412;24.612;2023-04-24T07:11:49;2.60;;;2.20;;
11671;SDS011;5892;43.412;24.612;2023-04-24T07:14:16;2.67;;;2.30;;
11671;SDS011;5892;43.412;24.612;2023-04-24T07:16:44;2.33;;;2.13;;
11671;SDS011;5892;43.412;24.612;2023-04-24T07:19:12;1.80;;;1.70;;
11671;SDS011;5892;43.412;24.612;2023-04-24T07:21:39;1.90;;;1.80;;
11671;SDS011;5892;43.412;24.612;2023-04-24T07:24:08;1.70;;;1.60;;
11671;SDS011;5892;43.412;24.612;2023-04-24T07:26:36;2.10;;;2.00;;
11671;SDS011;5892;43.412;24.612;2023-04-24T07:29:04;1.97;;;1.83;;
11671;SDS011;5892;43.412;24.612;2023-04-24T07:31:31;2.03;;;1.90;;
11671;SDS011;5892;43.412;24.612;2023-04-24T07:33:58;1.97;;;1.87;;
11671;SDS011;5892;43.412;24.612;2023-04-24T07:36:25;2.30;;;2.10;;
11671;SDS011;5892;43.412;24.612;2023-04-24T07:38:53;2.13;;;1.97;;
11671;SDS011;5892;43.412;24.612;2023-04-24T07:41:23;2.20;;;2.00;;
11671;SDS011;5892;43.412;24.612;2023-04-24T07:43:52;2.10;;;2.00;;
11671;SDS011;5892;43.412;24.612;2023-04-24T07:46:19;2.40;;;2.20;;
11671;SDS011;5892;43.412;24.612;2023-04-24T07:48:47;2.10;;;1.90;;
11671;SDS011;5892;43.412;24.612;2023-04-24T07:51:16;3.53;;;2.27;;
11671;SDS011;5892;43.412;24.612;2023-04-24T07:53:43;2.73;;;2.53;;
11671;SDS011;5892;43.412;24.612;2023-04-24T07:56:10;3.60;;;2.90;;
11671;SDS011;5892;43.412;24.612;2023-04-24T07:58:38;2.60;;;2.40;;
11671;SDS011;5892;43.412;24.612;2023-04-24T08:01:06;2.40;;;2.23;;
11671;SDS011;5892;43.412;24.612;2023-04-24T08:03:33;2.80;;;2.60;;
11671;SDS011;5892;43.412;24.612;2023-04-24T08:06:00;2.50;;;2.30;;
11671;SDS011;5892;43.412;24.612;2023-04-24T08:08:27;2.73;;;2.27;;
11671;SDS011;5892;43.412;24.612;2023-04-24T08:10:54;2.77;;;2.20;;
11671;SDS011;5892;43.412;24.612;2023-04-24T08:13:21;2.50;;;2.30;;
11671;SDS011;5892;43.412;24.612;2023-04-24T08:15:53;3.73;;;2.30;;
11671;SDS011;5892;43.412;24.612;2023-04-24T08:18:20;2.97;;;2.67;;
11671;SDS011;5892;43.412;24.612;2023-04-24T08:20:48;2.73;;;2.53;;
11671;SDS011;5892;43.412;24.612;2023-04-24T08:23:15;3.00;;;2.80;;
11671;SDS011;5892;43.412;24.612;2023-04-24T08:25:42;3.17;;;2.87;;
11671;SDS011;5892;43.412;24.612;2023-04-24T08:28:09;3.80;;;3.40;;
11671;SDS011;5892;43.412;24.612;2023-04-24T08:30:37;4.20;;;3.70;;
11671;SDS011;5892;43.412;24.612;2023-04-24T08:33:05;4.13;;;3.73;;
11671;SDS011;5892;43.412;24.612;2023-04-24T08:35:33;4.00;;;3.57;;
11671;SDS011;5892;43.412;24.612;2023-04-24T08:38:02;3.73;;;3.37;;
11671;SDS011;5892;43.412;24.612;2023-04-24T08:40:29;4.00;;;3.60;;
11671;SDS011;5892;43.412;24.612;2023-04-24T08:42:58;3.33;;;3.03;;
11671;SDS011;5892;43.412;24.612;2023-04-24T08:45:26;3.57;;;3.00;;
11671;SDS011;5892;43.412;24.612;2023-04-24T08:47:53;3.40;;;3.10;;
11671;SDS011;5892;43.412;24.612;2023-04-24T08:50:22;3.20;;;2.90;;
11671;SDS011;5892;43.412;24.612;2023-04-24T08:52:49;3.73;;;3.00;;
11671;SDS011;5892;43.412;24.612;2023-04-24T08:55:18;2.73;;;2.53;;
11671;SDS011;5892;43.412;24.612;2023-04-24T08:57:49;3.00;;;2.70;;
11671;SDS011;5892;43.412;24.612;2023-04-24T09:00:18;3.00;;;2.70;;
11671;SDS011;5892;43.412;24.612;2023-04-24T09:02:46;3.73;;;2.80;;
11671;SDS011;5892;43.412;24.612;2023-04-24T09:05:17;3.67;;;2.80;;
11671;SDS011;5892;43.412;24.612;2023-04-24T09:07:48;2.83;;;2.63;;
11671;SDS011;5892;43.412;24.612;2023-04-24T09:10:17;3.40;;;3.10;;
11671;SDS011;5892;43.412;24.612;2023-04-24T09:12:44;3.97;;;3.37;;
11671;SDS011;5892;43.412;24.612;2023-04-24T09:15:12;3.50;;;3.20;;
11671;SDS011;5892;43.412;24.612;2023-04-24T09:17:39;3.77;;;3.33;;
11671;SDS011;5892;43.412;24.612;2023-04-24T09:20:06;3.20;;;2.90;;
11671;SDS011;5892;43.412;24.612;2023-04-24T09:22:34;3.30;;;3.00;;
11671;SDS011;5892;43.412;24.612;2023-04-24T09:25:06;3.80;;;3.50;;
11671;SDS011;5892;43.412;24.612;2023-04-24T09:27:34;4.00;;;3.47;;
11671;SDS011;5892;43.412;24.612;2023-04-24T09:30:01;3.40;;;3.10;;
11671;SDS011;5892;43.412;24.612;2023-04-24T09:32:29;3.43;;;3.07;;
11671;SDS011;5892;43.412;24.612;2023-04-24T09:35:09;4.47;;;3.50;;
11671;SDS011;5892;43.412;24.612;2023-04-24T09:37:38;3.50;;;3.20;;
11671;SDS011;5892;43.412;24.612;2023-04-24T09:40:11;4.10;;;3.40;;
11671;SDS011;5892;43.412;24.612;2023-04-24T09:42:40;4.57;;;3.30;;
11671;SDS011;5892;43.412;24.612;2023-04-24T09:45:10;3.57;;;3.27;;
11671;SDS011;5892;43.412;24.612;2023-04-24T09:47:38;3.53;;;3.23;;
11671;SDS011;5892;43.412;24.612;2023-04-24T09:50:14;3.50;;;3.20;;
11671;SDS011;5892;43.412;24.612;2023-04-24T09:52:43;4.20;;;3.47;;
11671;SDS011;5892;43.412;24.612;2023-04-24T09:55:13;3.20;;;2.90;;
11671;SDS011;5892;43.412;24.612;2023-04-24T09:57:47;3.43;;;2.53;;
11671;SDS011;5892;43.412;24.612;2023-04-24T10:00:17;2.60;;;2.40;;
11671;SDS011;5892;43.412;24.612;2023-04-24T10:02:49;2.70;;;2.30;;
11671;SDS011;5892;43.412;24.612;2023-04-24T10:05:18;2.40;;;2.20;;
11671;SDS011;5892;43.412;24.612;2023-04-24T10:07:45;2.87;;;2.40;;
11671;SDS011;5892;43.412;24.612;2023-04-24T10:10:14;2.70;;;2.50;;
11671;SDS011;5892;43.412;24.612;2023-04-24T10:12:43;2.10;;;1.90;;
11671;SDS011;5892;43.412;24.612;2023-04-24T10:15:11;1.90;;;1.80;;
11671;SDS011;5892;43.412;24.612;2023-04-24T10:17:39;2.80;;;2.30;;
11671;SDS011;5892;43.412;24.612;2023-04-24T10:20:07;2.20;;;2.00;;
11671;SDS011;5892;43.412;24.612;2023-04-24T10:22:34;2.47;;;2.10;;
11671;SDS011;5892;43.412;24.612;2023-04-24T10:25:03;2.20;;;2.00;;
11671;SDS011;5892;43.412;24.612;2023-04-24T10:27:33;2.57;;;1.90;;
11671;SDS011;5892;43.412;24.612;2023-04-24T10:30:02;2.70;;;2.33;;
11671;SDS011;5892;43.412;24.612;2023-04-24T10:32:29;3.83;;;2.10;;
11671;SDS011;5892;43.412;24.612;2023-04-24T10:34:56;2.27;;;2.07;;
11671;SDS011;5892;43.412;24.612;2023-04-24T10:37:23;2.30;;;2.10;;
11671;SDS011;5892;43.412;24.612;2023-04-24T10:39:52;2.10;;;1.90;;
11671;SDS011;5892;43.412;24.612;2023-04-24T10:42:19;2.10;;;2.00;;
11671;SDS011;5892;43.412;24.612;2023-04-24T10:44:48;2.20;;;2.00;;
11671;SDS011;5892;43.412;24.612;2023-04-24T10:47:15;2.40;;;2.20;;
11671;SDS011;5892;43.412;24.612;2023-04-24T10:49:42;2.47;;;2.20;;
11671;SDS011;5892;43.412;24.612;2023-04-24T10:52:09;2.03;;;1.93;;
11671;SDS011;5892;43.412;24.612;2023-04-24T10:54:41;2.17;;;1.97;;
11671;SDS011;5892;43.412;24.612;2023-04-24T11:02:52;2.03;;;1.93;;
11671;SDS011;5892;43.412;24.612;2023-04-24T11:05:21;2.30;;;2.10;;
11671;SDS011;5892;43.412;24.612;2023-04-24T11:10:43;2.53;;;2.33;;
11671;SDS011;5892;43.412;24.612;2023-04-24T11:13:11;2.17;;;1.97;;
11671;SDS011;5892;43.412;24.612;2023-04-24T11:15:43;2.80;;;2.20;;
11671;SDS011;5892;43.412;24.612;2023-04-24T11:18:13;2.87;;;2.20;;
11671;SDS011;5892;43.412;24.612;2023-04-24T11:20:41;3.33;;;2.10;;
11671;SDS011;5892;43.412;24.612;2023-04-24T11:23:08;2.40;;;2.20;;
11671;SDS011;5892;43.412;24.612;2023-04-24T11:25:39;2.27;;;2.07;;
11671;SDS011;5892;43.412;24.612;2023-04-24T11:28:08;2.27;;;2.07;;
11671;SDS011;5892;43.412;24.612;2023-04-24T11:30:44;2.13;;;2.00;;
11671;SDS011;5892;43.412;24.612;2023-04-24T11:33:11;2.30;;;2.10;;
11671;SDS011;5892;43.412;24.612;2023-04-24T11:35:46;2.20;;;2.00;;
11671;SDS011;5892;43.412;24.612;2023-04-24T11:38:13;2.10;;;2.00;;
11671;SDS011;5892;43.412;24.612;2023-04-24T11:40:41;2.20;;;2.00;;
11671;SDS011;5892;43.412;24.612;2023-04-24T11:43:08;2.23;;;2.03;;
11671;SDS011;5892;43.412;24.612;2023-04-24T11:45:36;1.90;;;1.80;;
11671;SDS011;5892;43.412;24.612;2023-04-24T11:48:05;2.10;;;1.90;;
11671;SDS011;5892;43.412;24.612;2023-04-24T11:50:33;2.40;;;2.20;;
11671;SDS011;5892;43.412;24.612;2023-04-24T11:53:00;2.50;;;2.30;;
11671;SDS011;5892;43.412;24.612;2023-04-24T11:55:27;2.40;;;2.20;;
11671;SDS011;5892;43.412;24.612;2023-04-24T11:57:55;2.07;;;1.97;;
11671;SDS011;5892;43.412;24.612;2023-04-24T12:00:24;2.57;;;2.20;;
11671;SDS011;5892;43.412;24.612;2023-04-24T12:03:02;2.37;;;2.10;;
11671;SDS011;5892;43.412;24.612;2023-04-24T12:05:33;2.23;;;2.07;;
11671;SDS011;5892;43.412;24.612;2023-04-24T12:08:01;2.20;;;2.00;;
11671;SDS011;5892;43.412;24.612;2023-04-24T12:10:29;3.07;;;2.10;;
11671;SDS011;5892;43.412;24.612;2023-04-24T12:12:57;2.23;;;2.03;;
11671;SDS011;5892;43.412;24.612;2023-04-24T12:15:25;2.40;;;2.03;;
11671;SDS011;5892;43.412;24.612;2023-04-24T12:17:53;4.63;;;2.10;;
11671;SDS011;5892;43.412;24.612;2023-04-24T12:20:26;3.13;;;2.20;;
11671;SDS011;5892;43.412;24.612;2023-04-24T12:22:55;3.07;;;2.53;;
11671;SDS011;5892;43.412;24.612;2023-04-24T12:25:24;3.07;;;2.30;;
11671;SDS011;5892;43.412;24.612;2023-04-24T12:27:52;2.50;;;2.30;;
11671;SDS011;5892;43.412;24.612;2023-04-24T12:30:20;1.93;;;1.83;;
11671;SDS011;5892;43.412;24.612;2023-04-24T12:32:48;3.10;;;2.30;;
11671;SDS011;5892;43.412;24.612;2023-04-24T12:35:18;2.43;;;1.90;;
11671;SDS011;5892;43.412;24.612;2023-04-24T12:37:48;2.13;;;2.03;;
11671;SDS011;5892;43.412;24.612;2023-04-24T12:40:16;2.37;;;2.00;;
11671;SDS011;5892;43.412;24.612;2023-04-24T12:42:45;2.40;;;2.20;;
11671;SDS011;5892;43.412;24.612;2023-04-24T12:45:13;3.13;;;2.20;;
11671;SDS011;5892;43.412;24.612;2023-04-24T12:47:41;2.80;;;2.50;;
11671;SDS011;5892;43.412;24.612;2023-04-24T12:50:10;2.70;;;2.40;;
11671;SDS011;5892;43.412;24.612;2023-04-24T12:52:38;2.40;;;2.20;;
11671;SDS011;5892;43.412;24.612;2023-04-24T12:55:07;2.80;;;2.13;;
11671;SDS011;5892;43.412;24.612;2023-04-24T12:57:35;4.57;;;2.20;;
11671;SDS011;5892;43.412;24.612;2023-04-24T13:00:03;2.77;;;2.10;;
11671;SDS011;5892;43.412;24.612;2023-04-24T13:02:32;2.30;;;2.10;;
11671;SDS011;5892;43.412;24.612;2023-04-24T13:04:59;2.60;;;2.27;;
11671;SDS011;5892;43.412;24.612;2023-04-24T13:07:26;2.10;;;2.00;;
11671;SDS011;5892;43.412;24.612;2023-04-24T13:09:54;2.27;;;2.07;;
11671;SDS011;5892;43.412;24.612;2023-04-24T13:12:24;2.30;;;2.10;;
11671;SDS011;5892;43.412;24.612;2023-04-24T13:14:51;2.63;;;2.10;;
11671;SDS011;5892;43.412;24.612;2023-04-24T13:17:18;2.43;;;2.03;;
11671;SDS011;5892;43.412;24.612;2023-04-24T13:19:45;2.07;;;1.90;;
11671;SDS011;5892;43.412;24.612;2023-04-24T13:22:12;2.63;;;2.20;;
11671;SDS011;5892;43.412;24.612;2023-04-24T13:24:39;2.40;;;2.20;;
11671;SDS011;5892;43.412;24.612;2023-04-24T13:27:07;2.53;;;2.10;;
11671;SDS011;5892;43.412;24.612;2023-04-24T13:29:37;2.80;;;2.60;;
11671;SDS011;5892;43.412;24.612;2023-04-24T13:32:04;2.60;;;2.40;;
11671;SDS011;5892;43.412;24.612;2023-04-24T13:34:31;4.97;;;2.70;;
11671;SDS011;5892;43.412;24.612;2023-04-24T13:36:59;3.13;;;2.70;;
11671;SDS011;5892;43.412;24.612;2023-04-24T13:39:26;2.63;;;2.43;;
11671;SDS011;5892;43.412;24.612;2023-04-24T13:41:53;3.17;;;2.87;;
11671;SDS011;5892;43.412;24.612;2023-04-24T13:44:20;3.87;;;2.70;;
11671;SDS011;5892;43.412;24.612;2023-04-24T13:46:50;2.97;;;2.67;;
11671;SDS011;5892;43.412;24.612;2023-04-24T13:49:19;3.23;;;2.50;;
11671;SDS011;5892;43.412;24.612;2023-04-24T13:51:46;3.57;;;2.80;;
11671;SDS011;5892;43.412;24.612;2023-04-24T13:54:13;3.63;;;2.90;;
11671;SDS011;5892;43.412;24.612;2023-04-24T13:56:41;5.47;;;2.80;;
11671;SDS011;5892;43.412;24.612;2023-04-24T13:59:08;3.07;;;2.77;;
11671;SDS011;5892;43.412;24.612;2023-04-24T14:01:35;2.97;;;2.77;;
11671;SDS011;5892;43.412;24.612;2023-04-24T14:04:03;5.97;;;2.60;;
11671;SDS011;5892;43.412;24.612;2023-04-24T14:06:30;3.13;;;2.73;;
11671;SDS011;5892;43.412;24.612;2023-04-24T14:08:58;4.17;;;2.70;;
11671;SDS011;5892;43.412;24.612;2023-04-24T14:11:25;3.37;;;2.60;;
11671;SDS011;5892;43.412;24.612;2023-04-24T14:13:53;2.67;;;2.47;;
11671;SDS011;5892;43.412;24.612;2023-04-24T14:16:21;2.87;;;2.57;;
11671;SDS011;5892;43.412;24.612;2023-04-24T14:18:48;3.20;;;2.17;;
11671;SDS011;5892;43.412;24.612;2023-04-24T14:21:16;2.70;;;2.50;;
11671;SDS011;5892;43.412;24.612;2023-04-24T14:23:44;2.60;;;2.40;;
11671;SDS011;5892;43.412;24.612;2023-04-24T14:26:11;2.57;;;2.37;;
11671;SDS011;5892;43.412;24.612;2023-04-24T14:28:37;3.43;;;2.67;;
11671;SDS011;5892;43.412;24.612;2023-04-24T14:31:04;5.00;;;2.60;;
11671;SDS011;5892;43.412;24.612;2023-04-24T14:33:31;2.80;;;2.60;;
11671;SDS011;5892;43.412;24.612;2023-04-24T14:35:58;3.00;;;2.70;;
11671;SDS011;5892;43.412;24.612;2023-04-24T14:38:28;2.60;;;2.40;;
11671;SDS011;5892;43.412;24.612;2023-04-24T14:40:56;2.60;;;2.40;;
11671;SDS011;5892;43.412;24.612;2023-04-24T14:43:24;2.57;;;2.30;;
11671;SDS011;5892;43.412;24.612;2023-04-24T14:45:51;3.17;;;2.47;;
11671;SDS011;5892;43.412;24.612;2023-04-24T14:48:18;3.03;;;2.50;;
11671;SDS011;5892;43.412;24.612;2023-04-24T14:50:45;2.60;;;2.40;;
11671;SDS011;5892;43.412;24.612;2023-04-24T14:53:11;2.73;;;2.53;;
11671;SDS011;5892;43.412;24.612;2023-04-24T14:55:40;2.67;;;2.47;;
11671;SDS011;5892;43.412;24.612;2023-04-24T14:58:07;2.70;;;2.50;;
11671;SDS011;5892;43.412;24.612;2023-04-24T15:00:34;3.10;;;2.60;;